createdAt,value
2023-02-05T00:01:34.931Z,92.06
2023-02-05T00:04:01.572Z,91.71
2023-02-05T00:06:28.127Z,91.87
2023-02-05T00:08:57.199Z,92.12
2023-02-05T00:11:24.747Z,92.15
2023-02-05T00:13:53.580Z,91.87
2023-02-05T00:16:22.170Z,91.54
2023-02-05T00:18:49.411Z,91.89
2023-02-05T00:21:17.152Z,92.30
2023-02-05T00:23:43.993Z,91.73
2023-02-05T00:26:10.949Z,91.76
2023-02-05T00:28:40.373Z,92.36
2023-02-05T00:31:14.410Z,92.26
2023-02-05T00:33:41.178Z,92.06
2023-02-05T00:36:12.688Z,92.10
2023-02-05T00:38:40.156Z,91.89
2023-02-05T00:41:06.788Z,92.29
2023-02-05T00:43:33.326Z,91.95
2023-02-05T00:45:59.898Z,92.12
2023-02-05T00:48:26.758Z,92.17
2023-02-05T00:50:54.880Z,92.15
2023-02-05T00:53:22.756Z,92.35
2023-02-05T00:55:50.281Z,92.63
2023-02-05T00:58:17.234Z,92.44
2023-02-05T01:00:44.331Z,92.51
2023-02-05T01:03:11.098Z,92.42
2023-02-05T01:05:41.332Z,92.31
2023-02-05T01:08:10.606Z,92.39
2023-02-05T01:10:37.644Z,92.55
2023-02-05T01:13:07.806Z,92.66
2023-02-05T01:15:34.813Z,92.41
2023-02-05T01:18:03.988Z,93.02
2023-02-05T01:20:30.705Z,92.76
2023-02-05T01:22:57.386Z,93.11
2023-02-05T01:25:24.188Z,93.22
2023-02-05T01:27:50.840Z,92.81
2023-02-05T01:30:20.401Z,93.14
2023-02-05T01:32:47.042Z,93.42
2023-02-05T01:35:15.959Z,93.12
2023-02-05T01:37:42.554Z,93.37
2023-02-05T01:40:13.753Z,93.12
2023-02-05T01:42:40.303Z,93.15
2023-02-05T01:45:54.810Z,93.44
2023-02-05T01:48:29.753Z,93.77
2023-02-05T01:51:04.738Z,93.72
2023-02-05T01:53:34.863Z,93.46
2023-02-05T01:56:14.939Z,94.22
2023-02-05T01:58:49.579Z,93.74
2023-02-05T02:01:16.284Z,93.50
2023-02-05T02:03:46.347Z,94.12
2023-02-05T02:06:12.889Z,93.99
2023-02-05T02:08:39.459Z,93.64
2023-02-05T02:11:10.134Z,94.04
2023-02-05T02:13:40.129Z,94.22
2023-02-05T02:16:08.161Z,93.61
2023-02-05T02:18:36.841Z,93.33
2023-02-05T02:21:28.021Z,93.30
2023-02-05T02:24:23.805Z,93.31
2023-02-05T02:27:14.871Z,93.42
2023-02-05T02:30:02.452Z,93.57
2023-02-05T02:32:45.843Z,93.54
2023-02-05T02:35:44.614Z,93.42
2023-02-05T02:38:15.472Z,93.73
2023-02-05T02:40:51.911Z,93.63
2023-02-05T02:43:30.787Z,93.91
2023-02-05T02:46:05.504Z,93.73
2023-02-05T02:48:35.139Z,93.64
2023-02-05T02:51:03.068Z,93.59
2023-02-05T02:53:42.839Z,93.77
2023-02-05T02:56:12.375Z,93.76
2023-02-05T02:59:19.728Z,93.73
2023-02-05T03:01:54.048Z,93.77
2023-02-05T03:04:30.884Z,94.06
2023-02-05T03:07:06.294Z,94.05
2023-02-05T03:09:40.105Z,93.68
2023-02-05T03:12:07.343Z,93.98
2023-02-05T03:14:36.186Z,93.95
2023-02-05T03:17:02.884Z,94.11
2023-02-05T03:19:29.986Z,94.37
2023-02-05T03:22:04.890Z,94.05
2023-02-05T03:24:32.587Z,94.36
2023-02-05T03:26:59.214Z,94.09
2023-02-05T03:29:32.904Z,94.35
2023-02-05T03:32:29.863Z,94.27
2023-02-05T03:35:17.681Z,94.13
2023-02-05T03:37:53.434Z,94.03
2023-02-05T03:40:43.718Z,93.85
2023-02-05T03:43:35.177Z,93.55
2023-02-05T03:46:13.265Z,93.49
2023-02-05T03:48:57.936Z,93.73
2023-02-05T03:51:51.972Z,93.58
2023-02-05T03:54:23.059Z,93.30
2023-02-05T03:57:05.047Z,93.07
2023-02-05T03:59:33.916Z,93.26
2023-02-05T04:02:01.061Z,93.24
2023-02-05T04:04:27.908Z,93.86
2023-02-05T04:06:55.080Z,93.34
2023-02-05T04:09:21.628Z,93.32
2023-02-05T04:11:48.187Z,93.18
2023-02-05T04:14:15.436Z,93.41
2023-02-05T04:16:42.069Z,93.10
2023-02-05T04:19:08.720Z,93.46
2023-02-05T04:21:35.314Z,93.17
2023-02-05T04:24:02.736Z,93.40
2023-02-05T04:26:29.354Z,93.44
2023-02-05T04:28:56.003Z,93.42
2023-02-05T04:31:22.811Z,93.49
2023-02-05T04:33:49.397Z,93.74
2023-02-05T04:36:16.023Z,93.64
2023-02-05T04:38:45.087Z,93.34
2023-02-05T04:41:11.716Z,93.29
2023-02-05T04:43:38.296Z,93.40
2023-02-05T04:46:09.608Z,93.14
2023-02-05T04:48:36.749Z,92.93
2023-02-05T04:51:08.234Z,92.94
2023-02-05T04:53:37.186Z,93.15
2023-02-05T04:56:12.753Z,93.15
2023-02-05T04:58:40.067Z,92.63
2023-02-05T05:01:12.474Z,92.57
2023-02-05T05:03:45.456Z,92.43
2023-02-05T05:06:13.276Z,92.20
2023-02-05T05:08:40.380Z,92.68
2023-02-05T05:11:10.082Z,92.58
2023-02-05T05:13:39.740Z,92.47
2023-02-05T05:16:07.452Z,92.40
2023-02-05T05:18:35.095Z,92.53
2023-02-05T05:21:02.317Z,92.69
2023-02-05T05:23:29.184Z,92.24
2023-02-05T05:25:55.802Z,92.87
2023-02-05T05:28:22.485Z,92.36
2023-02-05T05:30:49.067Z,92.50
2023-02-05T05:33:16.034Z,92.32
2023-02-05T05:35:42.889Z,92.39
2023-02-05T05:38:09.432Z,92.60
2023-02-05T05:40:54.639Z,92.82
2023-02-05T05:43:40.227Z,92.38
2023-02-05T05:46:08.413Z,92.58
2023-02-05T05:48:37.276Z,92.10
2023-02-05T05:51:04.359Z,92.29
2023-02-05T05:53:34.309Z,92.59
2023-02-05T05:56:00.865Z,92.08
2023-02-05T05:58:29.570Z,92.35
2023-02-05T06:00:56.236Z,92.05
2023-02-05T06:03:24.014Z,92.21
2023-02-05T06:05:50.593Z,91.97
2023-02-05T06:08:17.228Z,92.43
2023-02-05T06:10:44.197Z,92.73
2023-02-05T06:13:13.384Z,92.25
2023-02-05T06:15:39.995Z,92.41
2023-02-05T06:18:06.596Z,92.35
2023-02-05T06:20:33.239Z,92.63
2023-02-05T06:22:59.870Z,92.41
2023-02-05T06:25:26.690Z,92.19
2023-02-05T06:27:55.641Z,92.31
2023-02-05T06:30:22.244Z,92.46
2023-02-05T06:32:48.830Z,92.18
2023-02-05T06:35:15.684Z,91.85
2023-02-05T06:37:47.415Z,91.43
2023-02-05T06:40:15.899Z,91.25
2023-02-05T06:42:47.310Z,91.15
2023-02-05T06:45:14.552Z,90.73
2023-02-05T06:47:41.098Z,90.50
2023-02-05T06:50:08.063Z,90.37
2023-02-05T06:52:37.632Z,90.32
2023-02-05T06:55:04.826Z,89.87
2023-02-05T06:57:32.036Z,89.65
2023-02-05T06:59:58.642Z,89.46
2023-02-05T07:02:25.436Z,89.19
2023-02-05T07:04:52.097Z,88.71
2023-02-05T07:07:18.799Z,88.76
2023-02-05T07:09:45.390Z,88.51
2023-02-05T07:12:12.124Z,88.70
2023-02-05T07:14:39.877Z,88.06
2023-02-05T07:17:08.672Z,88.14
2023-02-05T07:19:36.569Z,88.29
2023-02-05T07:22:04.068Z,88.25
2023-02-05T07:24:31.704Z,88.58
2023-02-05T07:26:58.399Z,88.34
2023-02-05T07:29:24.997Z,89.00
2023-02-05T07:31:52.660Z,88.97
2023-02-05T07:34:19.861Z,88.96
2023-02-05T07:36:52.179Z,89.16
2023-02-05T07:39:19.413Z,89.57
2023-02-05T07:41:45.990Z,89.35
2023-02-05T07:44:13.228Z,89.56
2023-02-05T07:46:39.997Z,89.57
2023-02-05T07:49:06.582Z,89.48
2023-02-05T07:51:35.461Z,89.44
2023-02-05T07:54:07.388Z,89.28
2023-02-05T07:56:34.025Z,89.36
2023-02-05T07:59:00.849Z,89.25
2023-02-05T08:01:27.706Z,89.00
2023-02-05T08:03:54.350Z,88.38
2023-02-05T08:06:26.206Z,87.54
2023-02-05T08:08:52.962Z,87.41
2023-02-05T08:11:19.850Z,87.32
2023-02-05T08:13:46.976Z,87.00
2023-02-05T08:16:17.694Z,87.19
2023-02-05T08:18:49.459Z,87.13
2023-02-05T08:21:16.780Z,87.45
2023-02-05T08:23:43.364Z,86.97
2023-02-05T08:26:10.042Z,86.81
2023-02-05T08:28:36.606Z,86.64
2023-02-05T08:31:09.736Z,86.45
2023-02-05T08:33:36.389Z,85.72
2023-02-05T08:36:03.020Z,85.64
2023-02-05T08:38:29.679Z,85.22
2023-02-05T08:40:56.293Z,85.14
2023-02-05T08:43:23.012Z,85.34
2023-02-05T08:45:49.652Z,85.34
2023-02-05T08:48:16.307Z,85.13
2023-02-05T08:50:46.186Z,84.62
2023-02-05T08:53:12.745Z,84.58
2023-02-05T08:55:39.362Z,84.28
2023-02-05T08:58:06.098Z,84.27
2023-02-05T09:00:33.307Z,84.79
2023-02-05T09:02:59.922Z,84.24
2023-02-05T09:05:28.847Z,84.49
2023-02-05T09:07:55.591Z,84.36
2023-02-05T09:10:24.750Z,84.21
2023-02-05T09:12:52.023Z,83.64
2023-02-05T09:15:20.942Z,83.78
2023-02-05T09:17:48.053Z,83.73
2023-02-05T09:20:14.641Z,83.28
2023-02-05T09:22:41.305Z,83.63
2023-02-05T09:25:11.749Z,83.41
2023-02-05T09:27:38.377Z,82.90
2023-02-05T09:30:08.258Z,83.11
2023-02-05T09:32:34.874Z,82.99
2023-02-05T09:35:09.903Z,83.15
2023-02-05T09:37:39.311Z,82.72
2023-02-05T09:40:20.549Z,83.10
2023-02-05T09:42:57.030Z,82.49
2023-02-05T09:46:04.488Z,82.25
2023-02-05T09:48:33.987Z,82.24
2023-02-05T09:51:01.564Z,82.16
2023-02-05T09:53:35.534Z,81.55
2023-02-05T09:56:06.673Z,81.69
2023-02-05T09:58:37.985Z,81.58
2023-02-05T10:01:12.560Z,81.36
2023-02-05T10:03:49.611Z,81.01
2023-02-05T10:06:19.912Z,80.61
2023-02-05T10:09:25.840Z,80.31
2023-02-05T10:12:09.400Z,80.22
2023-02-05T10:14:42.049Z,80.30
2023-02-05T10:17:36.613Z,80.44
2023-02-05T10:20:20.739Z,80.17
2023-02-05T10:23:07.051Z,80.23
2023-02-05T10:25:45.447Z,79.82
2023-02-05T10:28:31.695Z,79.65
2023-02-05T10:31:19.844Z,80.18
2023-02-05T10:33:49.447Z,79.74
2023-02-05T10:36:21.918Z,79.75
2023-02-05T10:38:51.205Z,79.70
2023-02-05T10:41:43.219Z,79.38
2023-02-05T10:44:22.036Z,78.88
2023-02-05T10:46:55.266Z,78.95
2023-02-05T10:49:28.603Z,78.70
2023-02-05T10:51:57.688Z,78.54
2023-02-05T10:54:29.100Z,78.44
2023-02-05T10:57:01.783Z,77.58
2023-02-05T10:59:34.621Z,77.44
2023-02-05T11:02:04.453Z,77.30
2023-02-05T11:04:38.275Z,77.44
2023-02-05T11:07:13.528Z,77.24
2023-02-05T11:09:40.369Z,76.34
2023-02-05T11:12:18.891Z,75.99
2023-02-05T11:14:46.689Z,76.09
2023-02-05T11:17:21.088Z,75.95
2023-02-05T11:19:54.284Z,75.33
2023-02-05T11:22:33.304Z,75.03
2023-02-05T11:25:16.563Z,74.83
2023-02-05T11:27:54.693Z,73.90
2023-02-05T11:30:50.403Z,73.55
2023-02-05T11:33:24.738Z,73.01
2023-02-05T11:36:03.846Z,72.91
2023-02-05T11:38:39.889Z,73.22
2023-02-05T11:41:08.306Z,72.54
2023-02-05T11:43:38.122Z,72.76
2023-02-05T11:46:08.402Z,72.40
2023-02-05T11:48:38.368Z,72.26
2023-02-05T11:51:08.146Z,72.39
2023-02-05T11:53:39.242Z,71.51
2023-02-05T11:56:14.088Z,71.67
2023-02-05T11:58:40.707Z,71.27
2023-02-05T12:01:24.199Z,71.54
2023-02-05T12:04:21.204Z,70.89
2023-02-05T12:06:55.358Z,70.92
2023-02-05T12:09:24.226Z,70.85
2023-02-05T12:12:06.587Z,71.02
2023-02-05T12:14:38.456Z,71.02
2023-02-05T12:17:20.282Z,71.18
2023-02-05T12:20:09.995Z,70.36
2023-02-05T12:22:45.330Z,70.68
2023-02-05T12:25:25.302Z,70.37
2023-02-05T12:28:07.795Z,70.48
2023-02-05T12:30:42.400Z,69.72
2023-02-05T12:33:19.630Z,70.19
2023-02-05T12:36:11.459Z,70.03
2023-02-05T12:38:52.113Z,69.75
2023-02-05T12:41:43.720Z,69.97
2023-02-05T12:44:32.294Z,69.72
2023-02-05T12:47:12.309Z,69.45
2023-02-05T12:50:14.446Z,70.19
2023-02-05T12:53:00.848Z,70.03
2023-02-05T12:55:51.786Z,69.85
2023-02-05T12:58:20.932Z,69.54
2023-02-05T13:00:54.784Z,69.21
2023-02-05T13:03:36.489Z,69.83
2023-02-05T13:06:13.730Z,69.64
2023-02-05T13:09:13.320Z,69.37
2023-02-05T13:12:05.113Z,69.51
2023-02-05T13:14:43.479Z,69.23
2023-02-05T13:17:21.044Z,69.33
2023-02-05T13:19:53.254Z,69.00
2023-02-05T13:22:41.166Z,69.41
2023-02-05T13:25:39.852Z,69.36
2023-02-05T13:28:33.686Z,69.04
2023-02-05T13:31:06.479Z,68.82
2023-02-05T13:33:33.099Z,68.42
2023-02-05T13:36:18.543Z,68.80
2023-02-05T13:38:57.469Z,68.61
2023-02-05T13:41:56.243Z,68.54
2023-02-05T13:44:41.483Z,69.25
2023-02-05T13:47:29.798Z,69.25
2023-02-05T13:50:22.393Z,69.72
2023-02-05T13:53:06.155Z,70.32
2023-02-05T13:55:57.432Z,69.62
2023-02-05T13:58:48.377Z,69.51
2023-02-05T14:01:20.319Z,69.64
2023-02-05T14:04:32.632Z,69.48
2023-02-05T14:07:02.973Z,69.33
2023-02-05T14:09:41.429Z,69.96
2023-02-05T14:12:12.170Z,69.95
2023-02-05T14:14:41.133Z,70.11
2023-02-05T14:17:31.151Z,70.16
2023-02-05T14:19:58.991Z,69.65
2023-02-05T14:22:42.299Z,69.93
2023-02-05T14:25:42.911Z,69.58
2023-02-05T14:28:12.531Z,69.56
2023-02-05T14:31:05.739Z,69.53
2023-02-05T14:33:45.422Z,70.00
2023-02-05T14:36:17.963Z,69.68
2023-02-05T14:38:51.458Z,70.00
2023-02-05T14:41:22.309Z,69.71
2023-02-05T14:44:02.124Z,70.13
2023-02-05T14:46:39.937Z,70.52
2023-02-05T14:49:22.521Z,70.30
2023-02-05T14:51:54.633Z,69.82
2023-02-05T14:54:24.140Z,70.27
2023-02-05T14:57:09.732Z,70.11
2023-02-05T14:59:47.948Z,70.73
2023-02-05T15:02:51.600Z,71.31
2023-02-05T15:05:39.201Z,71.48
2023-02-05T15:08:24.425Z,71.20
2023-02-05T15:11:00.168Z,71.38
2023-02-05T15:13:26.925Z,71.30
2023-02-05T15:16:18.841Z,71.37
2023-02-05T15:18:55.179Z,71.58
2023-02-05T15:21:21.709Z,71.38
2023-02-05T15:23:58.598Z,71.58
2023-02-05T15:26:42.357Z,71.68
2023-02-05T15:29:32.599Z,72.22
2023-02-05T15:32:03.839Z,71.98
2023-02-05T15:34:38.628Z,71.97
2023-02-05T15:37:29.831Z,72.01
2023-02-05T15:39:57.758Z,71.42
2023-02-05T15:42:40.644Z,71.50
2023-02-05T15:45:26.555Z,71.93
2023-02-05T15:47:59.648Z,72.11
2023-02-05T15:50:27.914Z,72.67
2023-02-05T15:52:55.417Z,72.97
2023-02-05T15:55:24.706Z,73.26
2023-02-05T15:57:51.652Z,73.45
2023-02-05T16:00:29.315Z,73.30
2023-02-05T16:03:01.880Z,73.65
2023-02-05T16:05:32.660Z,73.85
2023-02-05T16:08:01.949Z,73.97
2023-02-05T16:10:35.063Z,74.54
2023-02-05T16:13:05.335Z,74.70
2023-02-05T16:15:45.159Z,74.80
2023-02-05T16:18:20.344Z,74.96
2023-02-05T16:20:53.486Z,74.74
2023-02-05T16:23:35.158Z,74.99
2023-02-05T16:26:15.223Z,74.90
2023-02-05T16:28:48.384Z,75.30
2023-02-05T16:31:21.280Z,75.56
2023-02-05T16:33:53.725Z,75.68
2023-02-05T16:36:31.873Z,75.78
2023-02-05T16:39:07.382Z,75.75
2023-02-05T16:41:40.380Z,76.22
2023-02-05T16:44:25.625Z,75.62
2023-02-05T16:47:19.187Z,76.40
2023-02-05T16:49:47.769Z,76.10
2023-02-05T16:52:32.466Z,76.30
2023-02-05T16:55:05.665Z,76.37
2023-02-05T16:57:36.690Z,76.60
2023-02-05T17:00:25.764Z,76.54
2023-02-05T17:02:55.457Z,76.91
2023-02-05T17:05:28.584Z,77.00
2023-02-05T17:07:58.167Z,77.08
2023-02-05T17:10:25.432Z,77.33
2023-02-05T17:13:05.077Z,77.46
2023-02-05T17:15:40.309Z,77.88
2023-02-05T17:18:29.448Z,78.26
2023-02-05T17:21:21.508Z,77.88
2023-02-05T17:23:49.816Z,78.10
2023-02-05T17:26:16.998Z,78.25
2023-02-05T17:28:46.825Z,78.21
2023-02-05T17:31:14.337Z,78.21
2023-02-05T17:33:43.224Z,78.50
2023-02-05T17:36:17.796Z,78.79
2023-02-05T17:38:45.398Z,78.87
2023-02-05T17:41:41.278Z,78.94
2023-02-05T17:44:12.317Z,79.22
2023-02-05T17:46:39.584Z,79.45
2023-02-05T17:49:06.624Z,79.38
2023-02-05T17:51:33.332Z,79.51
2023-02-05T17:54:02.999Z,79.60
2023-02-05T17:56:29.838Z,79.71
2023-02-05T17:58:58.213Z,79.99
2023-02-05T18:01:25.004Z,80.17
2023-02-05T18:03:51.657Z,80.34
2023-02-05T18:06:19.198Z,80.50
2023-02-05T18:08:45.995Z,80.30
2023-02-05T18:11:15.088Z,80.37
2023-02-05T18:13:41.721Z,80.49
2023-02-05T18:16:12.289Z,80.50
2023-02-05T18:18:39.290Z,80.47
2023-02-05T18:21:07.328Z,80.45
2023-02-05T18:23:33.960Z,80.49
2023-02-05T18:26:00.987Z,80.53
2023-02-05T18:28:28.542Z,80.81
2023-02-05T18:31:03.668Z,81.32
2023-02-05T18:33:30.611Z,80.62
2023-02-05T18:36:07.892Z,80.95
2023-02-05T18:38:38.254Z,80.75
2023-02-05T18:41:05.895Z,81.25
2023-02-05T18:43:36.351Z,81.07
2023-02-05T18:46:11.233Z,81.09
2023-02-05T18:48:45.680Z,81.25
2023-02-05T18:51:18.598Z,81.20
2023-02-05T18:53:46.101Z,81.00
2023-02-05T18:56:16.287Z,81.59
2023-02-05T18:58:44.531Z,81.75
2023-02-05T19:01:16.831Z,81.55
2023-02-05T19:03:46.328Z,81.59
2023-02-05T19:06:17.118Z,81.97
2023-02-05T19:08:43.969Z,81.35
2023-02-05T19:11:13.633Z,81.87
2023-02-05T19:13:40.697Z,81.63
2023-02-05T19:16:12.733Z,81.64
2023-02-05T19:18:40.620Z,82.08
2023-02-05T19:21:12.789Z,81.97
2023-02-05T19:23:39.970Z,81.96
2023-02-05T19:26:14.215Z,81.86
2023-02-05T19:28:41.515Z,82.40
2023-02-05T19:31:15.040Z,82.31
2023-02-05T19:33:42.247Z,82.00
2023-02-05T19:36:10.681Z,82.46
2023-02-05T19:38:39.168Z,82.24
2023-02-05T19:41:09.461Z,82.39
2023-02-05T19:43:36.165Z,82.09
2023-02-05T19:46:10.130Z,82.35
2023-02-05T19:48:36.807Z,82.71
2023-02-05T19:51:08.475Z,82.95
2023-02-05T19:53:38.920Z,82.70
2023-02-05T19:56:27.245Z,82.30
2023-02-05T19:58:55.329Z,82.59
2023-02-05T20:01:32.666Z,83.07
2023-02-05T20:04:16.877Z,82.53
2023-02-05T20:06:46.490Z,83.14
2023-02-05T20:09:14.465Z,83.22
2023-02-05T20:11:43.630Z,83.03
2023-02-05T20:14:11.317Z,82.91
2023-02-05T20:16:41.918Z,83.06
2023-02-05T20:19:11.065Z,83.40
2023-02-05T20:21:38.576Z,83.38
2023-02-05T20:24:07.455Z,82.66
2023-02-05T20:26:35.168Z,83.15
2023-02-05T20:29:23.082Z,82.81
2023-02-05T20:31:51.507Z,82.80
2023-02-05T20:34:25.628Z,83.13
2023-02-05T20:36:58.026Z,83.31
2023-02-05T20:39:28.793Z,83.04
2023-02-05T20:41:57.985Z,83.30
2023-02-05T20:44:26.826Z,83.07
2023-02-05T20:46:54.011Z,83.79
2023-02-05T20:49:20.780Z,83.92
2023-02-05T20:51:47.565Z,83.89
2023-02-05T20:54:14.228Z,83.51
2023-02-05T20:56:41.557Z,83.41
2023-02-05T20:59:09.594Z,84.00
2023-02-05T21:01:37.801Z,83.60
2023-02-05T21:04:06.688Z,83.87
2023-02-05T21:06:36.555Z,85.67
2023-02-05T21:09:04.455Z,85.02
2023-02-05T21:11:31.618Z,84.92
2023-02-05T21:13:58.872Z,84.45
2023-02-05T21:16:27.722Z,84.76
2023-02-05T21:18:55.647Z,84.92
2023-02-05T21:21:24.629Z,84.40
2023-02-05T21:23:59.159Z,84.39
2023-02-05T21:26:39.992Z,85.31
2023-02-05T21:29:15.265Z,84.92
2023-02-05T21:31:46.365Z,85.33
2023-02-05T21:34:15.635Z,85.06
2023-02-05T21:36:42.290Z,85.07
2023-02-05T21:39:10.820Z,85.13
2023-02-05T21:41:37.632Z,85.36
2023-02-05T21:44:05.013Z,85.34
2023-02-05T21:46:31.882Z,85.21
2023-02-05T21:49:04.177Z,85.00
2023-02-05T21:51:34.642Z,85.22
2023-02-05T21:54:03.860Z,85.46
2023-02-05T21:56:50.727Z,85.63
2023-02-05T21:59:19.439Z,85.52
2023-02-05T22:01:46.166Z,85.49
2023-02-05T22:04:16.342Z,85.88
2023-02-05T22:06:43.765Z,85.69
2023-02-05T22:09:13.880Z,86.37
2023-02-05T22:11:40.775Z,86.08
2023-02-05T22:14:08.683Z,86.15
2023-02-05T22:16:36.652Z,85.90
2023-02-05T22:19:04.600Z,86.62
2023-02-05T22:21:34.900Z,86.49
2023-02-05T22:24:02.843Z,86.66
2023-02-05T22:26:32.274Z,86.33
2023-02-05T22:29:02.317Z,86.19
2023-02-05T22:31:29.671Z,86.16
2023-02-05T22:33:57.024Z,86.68
2023-02-05T22:36:26.694Z,86.71
2023-02-05T22:38:54.394Z,86.69
2023-02-05T22:41:22.669Z,86.26
2023-02-05T22:43:49.677Z,86.66
2023-02-05T22:46:21.137Z,86.56
2023-02-05T22:48:49.162Z,86.50
2023-02-05T22:51:29.554Z,86.13
2023-02-05T22:53:56.522Z,85.74
2023-02-05T22:56:23.620Z,86.08
2023-02-05T22:58:50.633Z,86.52
2023-02-05T23:01:21.376Z,86.37
2023-02-05T23:03:50.847Z,86.82
2023-02-05T23:06:21.472Z,87.09
2023-02-05T23:09:03.179Z,86.59
2023-02-05T23:11:31.500Z,86.78
2023-02-05T23:14:00.506Z,86.29
2023-02-05T23:16:30.665Z,86.76
2023-02-05T23:19:00.791Z,86.78
2023-02-05T23:21:29.849Z,86.37
2023-02-05T23:23:57.042Z,86.97
2023-02-05T23:26:30.770Z,86.93
2023-02-05T23:28:58.037Z,87.29
2023-02-05T23:31:27.906Z,87.83
2023-02-05T23:33:54.936Z,87.74
2023-02-05T23:36:21.775Z,87.62
2023-02-05T23:38:48.985Z,87.69
2023-02-05T23:41:35.454Z,87.48
2023-02-05T23:44:22.909Z,87.48
2023-02-05T23:46:54.257Z,87.65
2023-02-05T23:49:23.111Z,87.99
2023-02-05T23:51:51.043Z,86.77
2023-02-05T23:54:19.940Z,87.50
2023-02-05T23:56:47.013Z,87.06
2023-02-05T23:59:14.725Z,87.41
